createdAt,value
2023-03-23T15:58:34.477Z,20.07
2023-03-23T16:01:11.695Z,20.01
2023-03-23T16:03:43.771Z,20.02
2023-03-23T16:06:12.787Z,19.91
2023-03-23T16:08:54.028Z,19.89
2023-03-23T16:11:25.363Z,19.90
2023-03-23T16:13:54.120Z,19.78
2023-03-23T16:16:27.073Z,19.77
2023-03-23T16:18:54.667Z,19.67
2023-03-23T16:21:22.659Z,19.49
2023-03-23T16:23:49.959Z,19.35
2023-03-23T16:26:17.548Z,19.26
2023-03-23T16:28:45.216Z,19.23
2023-03-23T16:31:14.189Z,19.19
2023-03-23T16:33:44.501Z,19.11
2023-03-23T16:36:13.454Z,19.07
2023-03-23T16:38:50.124Z,19.02
2023-03-23T16:41:18.960Z,18.96
2023-03-23T16:43:47.104Z,18.90
2023-03-23T16:51:30.317Z,18.56
2023-03-23T16:54:33.776Z,18.51
2023-03-23T16:58:57.177Z,18.53
2023-03-23T17:00:32.935Z,18.48
2023-03-23T17:03:48.249Z,18.36
2023-03-23T17:06:22.056Z,18.30
2023-03-23T17:09:07.516Z,18.22
2023-03-23T17:13:17.633Z,18.11
2023-03-23T17:26:25.736Z,17.80
2023-03-23T17:30:23.492Z,17.66
2023-03-23T17:33:22.220Z,17.58
2023-03-23T17:36:03.163Z,17.51
2023-03-23T17:38:39.394Z,17.45
2023-03-23T17:41:11.298Z,17.44
2023-03-23T17:43:53.183Z,17.41
2023-03-23T17:46:21.977Z,17.36
2023-03-23T17:49:07.706Z,17.34
2023-03-23T17:57:41.195Z,17.12
2023-03-23T18:00:27.332Z,17.18
2023-03-23T18:02:59.532Z,17.20
2023-03-23T18:05:51.787Z,17.22
2023-03-23T18:08:27.000Z,17.30
2023-03-23T18:11:03.326Z,17.30
2023-03-23T18:13:53.106Z,17.29
2023-03-23T18:16:33.776Z,17.22
2023-03-23T18:19:14.312Z,17.14
2023-03-23T18:21:51.665Z,17.06
2023-03-23T18:24:18.942Z,17.04
2023-03-23T18:26:45.964Z,17.04
2023-03-23T18:29:14.468Z,16.99
2023-03-23T18:31:41.577Z,16.97
2023-03-23T18:34:08.722Z,17.01
2023-03-23T18:36:36.373Z,16.99
2023-03-23T18:39:06.206Z,17.00
2023-03-23T18:41:33.219Z,17.03
2023-03-23T18:44:00.227Z,17.08
2023-03-23T18:46:29.660Z,17.08
2023-03-23T18:48:57.566Z,17.04
2023-03-23T18:51:26.138Z,16.94
2023-03-23T18:53:53.372Z,16.83
2023-03-23T18:56:21.019Z,16.80
2023-03-23T18:58:48.100Z,16.80
2023-03-23T19:01:17.547Z,16.84
2023-03-23T19:03:46.632Z,16.84
2023-03-23T19:06:20.132Z,16.82
2023-03-23T19:08:48.537Z,16.80
2023-03-23T19:11:17.080Z,16.70
2023-03-23T19:13:58.376Z,16.62
2023-03-23T19:16:28.591Z,16.48
2023-03-23T19:18:57.130Z,16.48
2023-03-23T19:21:25.504Z,16.42
2023-03-23T19:23:53.765Z,16.42
2023-03-23T19:26:26.938Z,16.41
2023-03-23T19:29:24.314Z,16.38
2023-03-23T19:31:42.742Z,16.33
2023-03-23T19:34:13.209Z,16.28
2023-03-23T19:36:40.897Z,16.25
2023-03-23T19:39:08.860Z,16.17
2023-03-23T19:41:36.946Z,16.06
2023-03-23T19:44:05.750Z,16.05
2023-03-23T19:46:33.200Z,16.05
2023-03-23T19:49:01.043Z,16.05
2023-03-23T19:51:29.871Z,16.05
2023-03-23T19:53:59.541Z,16.05
2023-03-23T19:56:28.910Z,16.07
2023-03-23T19:58:56.693Z,16.08
2023-03-23T20:01:24.096Z,16.08
2023-03-23T20:03:51.674Z,16.07
2023-03-23T20:06:20.116Z,16.02
2023-03-23T20:08:48.736Z,16.01
2023-03-23T20:11:20.831Z,15.98
2023-03-23T20:13:49.090Z,15.96
2023-03-23T20:16:17.765Z,15.94
2023-03-23T20:18:47.238Z,15.98
2023-03-23T20:21:19.766Z,16.04
2023-03-23T20:23:51.676Z,16.06
2023-03-23T20:26:23.263Z,16.06
2023-03-23T20:28:50.532Z,16.11
2023-03-23T20:31:24.328Z,16.16
2023-03-23T20:34:00.832Z,16.18
2023-03-23T20:36:34.360Z,16.17
2023-03-23T20:39:05.586Z,16.22
2023-03-23T20:41:35.760Z,16.30
2023-03-23T20:44:03.919Z,16.35
2023-03-23T20:46:31.554Z,16.37
2023-03-23T20:48:58.740Z,16.38
2023-03-23T20:51:25.751Z,16.38
2023-03-23T20:53:53.177Z,16.36
2023-03-23T20:56:22.305Z,16.34
2023-03-23T20:58:49.603Z,16.34
2023-03-23T21:01:16.866Z,16.37
2023-03-23T21:03:44.397Z,16.39
2023-03-23T21:06:11.849Z,16.36
2023-03-23T21:08:40.839Z,16.34
2023-03-23T21:11:10.215Z,16.36
2023-03-23T21:13:38.554Z,16.37
2023-03-23T21:16:07.470Z,16.38
2023-03-23T21:18:35.006Z,16.38
2023-03-23T21:21:02.496Z,16.40
2023-03-23T21:23:33.525Z,16.42
2023-03-23T21:26:13.612Z,16.45
2023-03-23T21:28:42.363Z,16.47
2023-03-23T21:31:14.874Z,16.48
2023-03-23T21:33:42.388Z,16.45
2023-03-23T21:36:10.630Z,16.46
2023-03-23T21:38:38.295Z,16.47
2023-03-23T21:41:09.189Z,16.46
2023-03-23T21:43:36.462Z,16.46
2023-03-23T21:46:08.803Z,16.46
2023-03-23T21:48:42.060Z,16.46
2023-03-23T21:51:21.164Z,16.46
2023-03-23T21:53:48.242Z,16.44
2023-03-23T21:56:15.640Z,16.45
2023-03-23T21:58:42.970Z,16.48
2023-03-23T22:01:12.853Z,16.49
2023-03-23T22:03:59.131Z,16.51
2023-03-23T22:06:44.930Z,16.53
2023-03-23T22:09:12.437Z,16.55
2023-03-23T22:11:41.304Z,16.59
2023-03-23T22:14:08.610Z,16.60
2023-03-23T22:16:37.087Z,16.61
2023-03-23T22:19:04.368Z,16.63
2023-03-23T22:21:31.708Z,16.63
2023-03-23T22:24:00.774Z,16.64
2023-03-23T22:26:29.937Z,16.58
2023-03-23T22:28:58.808Z,16.55
2023-03-23T22:31:29.178Z,16.55
2023-03-23T22:33:57.921Z,16.54
2023-03-23T22:36:28.159Z,16.50
2023-03-23T22:38:56.387Z,16.49
2023-03-23T22:41:28.083Z,16.47
2023-03-23T22:43:55.716Z,16.45
2023-03-23T22:46:23.182Z,16.46
2023-03-23T22:48:50.131Z,16.49
2023-03-23T22:51:20.169Z,16.51
2023-03-23T22:53:47.947Z,16.57
2023-03-23T22:56:16.546Z,16.56
2023-03-23T22:58:44.368Z,16.56
2023-03-23T23:01:15.595Z,16.56
2023-03-23T23:03:44.560Z,16.54
2023-03-23T23:06:13.619Z,16.57
2023-03-23T23:08:42.752Z,16.51
2023-03-23T23:11:13.703Z,16.53
2023-03-23T23:13:41.536Z,16.49
2023-03-23T23:16:10.829Z,16.55
2023-03-23T23:18:40.023Z,16.52
2023-03-23T23:21:11.615Z,16.53
2023-03-23T23:23:41.454Z,16.51
2023-03-23T23:26:09.604Z,16.53
2023-03-23T23:28:36.901Z,16.51
2023-03-23T23:31:06.172Z,16.53
2023-03-23T23:33:33.312Z,16.52
2023-03-23T23:36:00.312Z,16.54
2023-03-23T23:38:27.335Z,16.55
2023-03-23T23:40:55.662Z,16.58
2023-03-23T23:43:22.621Z,16.42
2023-03-23T23:45:49.562Z,16.40
2023-03-23T23:48:16.821Z,16.39
2023-03-23T23:50:43.963Z,16.43
2023-03-23T23:53:12.843Z,16.37
2023-03-23T23:55:40.301Z,16.37
2023-03-23T23:58:08.625Z,16.31
